Terminal Aerodrome Forecast
Issued by NWS Sioux Falls, SD

Home | Current Version | Previous Version | Text Only | Print | Product List | Glossary Off
Versions: 1 2 3 4 5 6 7 8 9 10 11 12 13 14 15 16

000
FTUS43 KFSD 171120
TAFFSD
TAF
KFSD 171120Z 1712/1812 33020G28KT P6SM OVC030
     FM180000 34014KT P6SM OVC030
     FM180700 35006KT P6SM BKN030=

USA.gov is the U.S. government's official web portal to all federal, state and local government web resources and services.